sensor_id;sensor_type;location;lat;lon;timestamp;P1;durP1;ratioP1;P2;durP2;ratioP2
43877;SDS011;29815;48.184;11.268;2023-06-04T00:01:19;13.35;;;10.43;;
43877;SDS011;29815;48.184;11.268;2023-06-04T00:03:49;12.57;;;10.05;;
43877;SDS011;29815;48.184;11.268;2023-06-04T00:06:20;15.15;;;9.98;;
43877;SDS011;29815;48.184;11.268;2023-06-04T00:08:50;14.25;;;10.20;;
43877;SDS011;29815;48.184;11.268;2023-06-04T00:11:20;13.27;;;9.95;;
43877;SDS011;29815;48.184;11.268;2023-06-04T00:13:50;17.30;;;8.93;;
43877;SDS011;29815;48.184;11.268;2023-06-04T00:16:20;14.65;;;9.40;;
43877;SDS011;29815;48.184;11.268;2023-06-04T00:18:49;13.02;;;9.50;;
43877;SDS011;29815;48.184;11.268;2023-06-04T00:21:21;14.65;;;10.55;;
43877;SDS011;29815;48.184;11.268;2023-06-04T00:23:51;19.65;;;11.48;;
43877;SDS011;29815;48.184;11.268;2023-06-04T00:26:20;15.98;;;11.65;;
43877;SDS011;29815;48.184;11.268;2023-06-04T00:28:51;13.25;;;10.15;;
43877;SDS011;29815;48.184;11.268;2023-06-04T00:31:22;15.43;;;10.07;;
43877;SDS011;29815;48.184;11.268;2023-06-04T00:33:52;17.15;;;10.88;;
43877;SDS011;29815;48.184;11.268;2023-06-04T00:36:23;11.98;;;9.93;;
43877;SDS011;29815;48.184;11.268;2023-06-04T00:38:56;15.18;;;9.65;;
43877;SDS011;29815;48.184;11.268;2023-06-04T00:41:25;11.45;;;9.68;;
43877;SDS011;29815;48.184;11.268;2023-06-04T00:43:55;11.52;;;9.02;;
43877;SDS011;29815;48.184;11.268;2023-06-04T00:46:25;11.88;;;8.55;;
43877;SDS011;29815;48.184;11.268;2023-06-04T00:48:55;13.25;;;9.20;;
43877;SDS011;29815;48.184;11.268;2023-06-04T00:51:26;13.98;;;9.60;;
43877;SDS011;29815;48.184;11.268;2023-06-04T00:53:59;12.55;;;8.88;;
43877;SDS011;29815;48.184;11.268;2023-06-04T00:56:36;12.00;;;9.38;;
43877;SDS011;29815;48.184;11.268;2023-06-04T00:59:07;13.07;;;9.80;;
43877;SDS011;29815;48.184;11.268;2023-06-04T01:01:39;12.05;;;10.10;;
43877;SDS011;29815;48.184;11.268;2023-06-04T01:04:28;14.70;;;10.32;;
43877;SDS011;29815;48.184;11.268;2023-06-04T01:07:14;14.70;;;11.15;;
43877;SDS011;29815;48.184;11.268;2023-06-04T01:09:45;13.40;;;10.27;;
43877;SDS011;29815;48.184;11.268;2023-06-04T01:12:15;11.65;;;9.50;;
43877;SDS011;29815;48.184;11.268;2023-06-04T01:14:44;12.00;;;10.07;;
43877;SDS011;29815;48.184;11.268;2023-06-04T01:17:15;13.85;;;11.07;;
43877;SDS011;29815;48.184;11.268;2023-06-04T01:20:06;14.75;;;10.07;;
43877;SDS011;29815;48.184;11.268;2023-06-04T01:23:10;12.10;;;10.00;;
43877;SDS011;29815;48.184;11.268;2023-06-04T01:26:01;12.32;;;9.90;;
43877;SDS011;29815;48.184;11.268;2023-06-04T01:28:33;12.73;;;10.43;;
43877;SDS011;29815;48.184;11.268;2023-06-04T01:31:04;16.80;;;10.73;;
43877;SDS011;29815;48.184;11.268;2023-06-04T01:33:36;13.50;;;11.00;;
43877;SDS011;29815;48.184;11.268;2023-06-04T01:36:06;11.98;;;9.52;;
43877;SDS011;29815;48.184;11.268;2023-06-04T01:38:39;12.38;;;9.90;;
43877;SDS011;29815;48.184;11.268;2023-06-04T01:41:09;11.50;;;9.90;;
43877;SDS011;29815;48.184;11.268;2023-06-04T01:43:38;10.50;;;9.38;;
43877;SDS011;29815;48.184;11.268;2023-06-04T01:46:08;11.60;;;9.20;;
43877;SDS011;29815;48.184;11.268;2023-06-04T01:48:38;12.35;;;9.77;;
43877;SDS011;29815;48.184;11.268;2023-06-04T01:51:08;11.75;;;8.90;;
43877;SDS011;29815;48.184;11.268;2023-06-04T01:53:39;12.80;;;8.82;;
43877;SDS011;29815;48.184;11.268;2023-06-04T01:56:09;12.20;;;9.05;;
43877;SDS011;29815;48.184;11.268;2023-06-04T01:58:40;13.07;;;9.50;;
43877;SDS011;29815;48.184;11.268;2023-06-04T02:01:10;12.57;;;9.90;;
43877;SDS011;29815;48.184;11.268;2023-06-04T02:03:40;12.68;;;9.50;;
43877;SDS011;29815;48.184;11.268;2023-06-04T02:06:10;11.85;;;9.63;;
43877;SDS011;29815;48.184;11.268;2023-06-04T02:08:42;14.38;;;10.50;;
43877;SDS011;29815;48.184;11.268;2023-06-04T02:11:12;11.73;;;9.70;;
43877;SDS011;29815;48.184;11.268;2023-06-04T02:13:41;14.40;;;10.00;;
43877;SDS011;29815;48.184;11.268;2023-06-04T02:16:11;10.85;;;9.63;;
43877;SDS011;29815;48.184;11.268;2023-06-04T02:18:41;10.65;;;9.15;;
43877;SDS011;29815;48.184;11.268;2023-06-04T02:21:10;13.20;;;9.18;;
43877;SDS011;29815;48.184;11.268;2023-06-04T02:23:42;10.23;;;8.98;;
43877;SDS011;29815;48.184;11.268;2023-06-04T02:26:11;10.88;;;9.13;;
43877;SDS011;29815;48.184;11.268;2023-06-04T02:28:41;14.05;;;10.05;;
43877;SDS011;29815;48.184;11.268;2023-06-04T02:31:11;12.00;;;9.65;;
43877;SDS011;29815;48.184;11.268;2023-06-04T02:33:40;11.43;;;8.93;;
43877;SDS011;29815;48.184;11.268;2023-06-04T02:36:10;13.32;;;10.02;;
43877;SDS011;29815;48.184;11.268;2023-06-04T02:38:41;13.88;;;9.77;;
43877;SDS011;29815;48.184;11.268;2023-06-04T02:41:11;10.57;;;8.93;;
43877;SDS011;29815;48.184;11.268;2023-06-04T02:43:40;14.25;;;9.43;;
43877;SDS011;29815;48.184;11.268;2023-06-04T02:46:10;12.98;;;9.10;;
43877;SDS011;29815;48.184;11.268;2023-06-04T02:48:40;9.73;;;8.73;;
43877;SDS011;29815;48.184;11.268;2023-06-04T02:51:10;14.23;;;8.60;;
43877;SDS011;29815;48.184;11.268;2023-06-04T02:53:39;13.18;;;8.52;;
43877;SDS011;29815;48.184;11.268;2023-06-04T02:56:10;10.27;;;8.70;;
43877;SDS011;29815;48.184;11.268;2023-06-04T02:58:48;10.40;;;8.00;;
43877;SDS011;29815;48.184;11.268;2023-06-04T03:01:19;13.50;;;8.07;;
43877;SDS011;29815;48.184;11.268;2023-06-04T03:03:49;9.77;;;7.90;;
43877;SDS011;29815;48.184;11.268;2023-06-04T03:06:19;10.52;;;8.57;;
43877;SDS011;29815;48.184;11.268;2023-06-04T03:08:55;11.23;;;7.97;;
43877;SDS011;29815;48.184;11.268;2023-06-04T03:11:26;12.07;;;8.82;;
43877;SDS011;29815;48.184;11.268;2023-06-04T03:13:56;10.13;;;7.53;;
43877;SDS011;29815;48.184;11.268;2023-06-04T03:16:26;10.65;;;8.23;;
43877;SDS011;29815;48.184;11.268;2023-06-04T03:18:57;11.20;;;8.20;;
43877;SDS011;29815;48.184;11.268;2023-06-04T03:21:26;10.50;;;7.95;;
43877;SDS011;29815;48.184;11.268;2023-06-04T03:23:58;11.88;;;8.57;;
43877;SDS011;29815;48.184;11.268;2023-06-04T03:26:27;10.82;;;8.73;;
43877;SDS011;29815;48.184;11.268;2023-06-04T03:28:57;11.13;;;8.18;;
43877;SDS011;29815;48.184;11.268;2023-06-04T03:31:27;12.23;;;8.38;;
43877;SDS011;29815;48.184;11.268;2023-06-04T03:34:00;10.77;;;8.93;;
43877;SDS011;29815;48.184;11.268;2023-06-04T03:36:30;12.82;;;9.13;;
43877;SDS011;29815;48.184;11.268;2023-06-04T03:39:03;10.52;;;8.90;;
43877;SDS011;29815;48.184;11.268;2023-06-04T03:41:33;10.60;;;8.82;;
43877;SDS011;29815;48.184;11.268;2023-06-04T03:44:03;11.20;;;8.95;;
43877;SDS011;29815;48.184;11.268;2023-06-04T03:46:32;12.05;;;8.20;;
43877;SDS011;29815;48.184;11.268;2023-06-04T03:49:03;10.55;;;8.07;;
43877;SDS011;29815;48.184;11.268;2023-06-04T03:51:33;9.88;;;8.57;;
43877;SDS011;29815;48.184;11.268;2023-06-04T03:54:04;11.32;;;8.55;;
43877;SDS011;29815;48.184;11.268;2023-06-04T03:56:35;12.15;;;8.55;;
43877;SDS011;29815;48.184;11.268;2023-06-04T03:59:04;9.70;;;8.57;;
43877;SDS011;29815;48.184;11.268;2023-06-04T04:01:34;11.88;;;9.02;;
43877;SDS011;29815;48.184;11.268;2023-06-04T04:04:04;11.63;;;9.52;;
43877;SDS011;29815;48.184;11.268;2023-06-04T04:06:34;12.15;;;9.38;;
43877;SDS011;29815;48.184;11.268;2023-06-04T04:09:06;11.93;;;9.32;;
43877;SDS011;29815;48.184;11.268;2023-06-04T04:11:36;11.73;;;9.10;;
43877;SDS011;29815;48.184;11.268;2023-06-04T04:14:06;13.05;;;8.60;;
43877;SDS011;29815;48.184;11.268;2023-06-04T04:16:36;11.98;;;9.38;;
43877;SDS011;29815;48.184;11.268;2023-06-04T04:19:06;12.00;;;8.70;;
43877;SDS011;29815;48.184;11.268;2023-06-04T04:21:37;11.40;;;9.17;;
43877;SDS011;29815;48.184;11.268;2023-06-04T04:24:08;12.57;;;9.70;;
43877;SDS011;29815;48.184;11.268;2023-06-04T04:26:38;12.52;;;9.07;;
43877;SDS011;29815;48.184;11.268;2023-06-04T04:29:10;13.07;;;10.07;;
43877;SDS011;29815;48.184;11.268;2023-06-04T04:31:41;12.63;;;10.07;;
43877;SDS011;29815;48.184;11.268;2023-06-04T04:34:10;11.75;;;9.48;;
43877;SDS011;29815;48.184;11.268;2023-06-04T04:36:42;12.45;;;9.63;;
43877;SDS011;29815;48.184;11.268;2023-06-04T04:39:22;12.95;;;10.30;;
43877;SDS011;29815;48.184;11.268;2023-06-04T04:41:56;9.48;;;7.65;;
43877;SDS011;29815;48.184;11.268;2023-06-04T04:44:25;10.63;;;7.53;;
43877;SDS011;29815;48.184;11.268;2023-06-04T04:46:55;10.75;;;6.75;;
43877;SDS011;29815;48.184;11.268;2023-06-04T04:49:25;9.73;;;6.70;;
43877;SDS011;29815;48.184;11.268;2023-06-04T04:51:54;9.10;;;6.72;;
43877;SDS011;29815;48.184;11.268;2023-06-04T04:54:25;7.38;;;5.78;;
43877;SDS011;29815;48.184;11.268;2023-06-04T04:56:55;9.43;;;6.28;;
43877;SDS011;29815;48.184;11.268;2023-06-04T04:59:42;7.07;;;5.28;;
43877;SDS011;29815;48.184;11.268;2023-06-04T05:02:12;9.60;;;6.25;;
43877;SDS011;29815;48.184;11.268;2023-06-04T05:04:42;7.63;;;6.30;;
43877;SDS011;29815;48.184;11.268;2023-06-04T05:07:13;9.65;;;5.85;;
43877;SDS011;29815;48.184;11.268;2023-06-04T05:09:45;6.22;;;4.88;;
43877;SDS011;29815;48.184;11.268;2023-06-04T05:12:14;9.52;;;6.10;;
43877;SDS011;29815;48.184;11.268;2023-06-04T05:14:45;8.13;;;5.57;;
43877;SDS011;29815;48.184;11.268;2023-06-04T05:17:15;6.35;;;5.57;;
43877;SDS011;29815;48.184;11.268;2023-06-04T05:19:49;7.68;;;5.30;;
43877;SDS011;29815;48.184;11.268;2023-06-04T05:22:20;7.97;;;4.65;;
43877;SDS011;29815;48.184;11.268;2023-06-04T05:24:52;7.72;;;4.65;;
43877;SDS011;29815;48.184;11.268;2023-06-04T05:27:21;9.43;;;5.88;;
43877;SDS011;29815;48.184;11.268;2023-06-04T05:29:51;7.28;;;5.35;;
43877;SDS011;29815;48.184;11.268;2023-06-04T05:32:21;7.97;;;5.07;;
43877;SDS011;29815;48.184;11.268;2023-06-04T05:34:51;7.38;;;5.30;;
43877;SDS011;29815;48.184;11.268;2023-06-04T05:37:24;7.00;;;4.07;;
43877;SDS011;29815;48.184;11.268;2023-06-04T05:39:58;8.35;;;4.40;;
43877;SDS011;29815;48.184;11.268;2023-06-04T05:42:28;5.13;;;4.10;;
43877;SDS011;29815;48.184;11.268;2023-06-04T05:44:57;5.72;;;4.78;;
43877;SDS011;29815;48.184;11.268;2023-06-04T05:47:27;6.68;;;4.18;;
43877;SDS011;29815;48.184;11.268;2023-06-04T05:49:58;5.55;;;4.60;;
43877;SDS011;29815;48.184;11.268;2023-06-04T05:52:31;5.97;;;3.78;;
43877;SDS011;29815;48.184;11.268;2023-06-04T05:55:03;9.10;;;5.10;;
43877;SDS011;29815;48.184;11.268;2023-06-04T05:57:37;6.70;;;4.30;;
43877;SDS011;29815;48.184;11.268;2023-06-04T06:00:07;7.57;;;5.15;;
43877;SDS011;29815;48.184;11.268;2023-06-04T06:02:41;6.80;;;4.18;;
43877;SDS011;29815;48.184;11.268;2023-06-04T06:05:26;5.03;;;4.00;;
43877;SDS011;29815;48.184;11.268;2023-06-04T06:07:56;7.60;;;4.65;;
43877;SDS011;29815;48.184;11.268;2023-06-04T06:10:27;5.47;;;4.13;;
43877;SDS011;29815;48.184;11.268;2023-06-04T06:12:57;7.50;;;3.92;;
43877;SDS011;29815;48.184;11.268;2023-06-04T06:15:28;5.25;;;4.00;;
43877;SDS011;29815;48.184;11.268;2023-06-04T06:17:59;7.25;;;4.53;;
43877;SDS011;29815;48.184;11.268;2023-06-04T06:20:28;6.43;;;3.83;;
43877;SDS011;29815;48.184;11.268;2023-06-04T06:23:05;5.70;;;3.67;;
43877;SDS011;29815;48.184;11.268;2023-06-04T06:25:41;7.60;;;4.00;;
43877;SDS011;29815;48.184;11.268;2023-06-04T06:28:18;6.43;;;4.18;;
43877;SDS011;29815;48.184;11.268;2023-06-04T06:30:49;4.00;;;3.08;;
43877;SDS011;29815;48.184;11.268;2023-06-04T06:33:18;6.25;;;3.70;;
43877;SDS011;29815;48.184;11.268;2023-06-04T06:35:51;6.85;;;4.15;;
43877;SDS011;29815;48.184;11.268;2023-06-04T06:38:21;4.60;;;3.47;;
43877;SDS011;29815;48.184;11.268;2023-06-04T06:40:52;5.50;;;3.70;;
43877;SDS011;29815;48.184;11.268;2023-06-04T06:43:22;9.07;;;3.80;;
43877;SDS011;29815;48.184;11.268;2023-06-04T06:45:52;5.80;;;4.10;;
43877;SDS011;29815;48.184;11.268;2023-06-04T06:48:22;4.93;;;3.53;;
43877;SDS011;29815;48.184;11.268;2023-06-04T06:50:52;5.97;;;3.80;;
43877;SDS011;29815;48.184;11.268;2023-06-04T06:53:22;5.28;;;4.25;;
43877;SDS011;29815;48.184;11.268;2023-06-04T06:55:53;6.88;;;3.45;;
43877;SDS011;29815;48.184;11.268;2023-06-04T06:58:23;5.82;;;3.67;;
43877;SDS011;29815;48.184;11.268;2023-06-04T07:00:52;4.75;;;3.60;;
43877;SDS011;29815;48.184;11.268;2023-06-04T07:03:24;6.30;;;3.72;;
43877;SDS011;29815;48.184;11.268;2023-06-04T07:05:54;6.50;;;4.50;;
43877;SDS011;29815;48.184;11.268;2023-06-04T07:08:24;5.38;;;3.85;;
43877;SDS011;29815;48.184;11.268;2023-06-04T07:10:55;4.72;;;4.07;;
43877;SDS011;29815;48.184;11.268;2023-06-04T07:13:25;4.80;;;3.55;;
43877;SDS011;29815;48.184;11.268;2023-06-04T07:15:54;11.70;;;4.53;;
43877;SDS011;29815;48.184;11.268;2023-06-04T07:18:24;6.95;;;4.15;;
43877;SDS011;29815;48.184;11.268;2023-06-04T07:20:54;6.50;;;3.90;;
43877;SDS011;29815;48.184;11.268;2023-06-04T07:23:24;7.82;;;4.10;;
43877;SDS011;29815;48.184;11.268;2023-06-04T07:25:56;7.75;;;3.97;;
43877;SDS011;29815;48.184;11.268;2023-06-04T07:28:26;6.15;;;3.40;;
43877;SDS011;29815;48.184;11.268;2023-06-04T07:30:56;4.38;;;3.30;;
43877;SDS011;29815;48.184;11.268;2023-06-04T07:33:26;7.13;;;4.03;;
43877;SDS011;29815;48.184;11.268;2023-06-04T07:35:55;9.13;;;3.90;;
43877;SDS011;29815;48.184;11.268;2023-06-04T07:38:25;7.00;;;3.85;;
43877;SDS011;29815;48.184;11.268;2023-06-04T07:40:56;6.38;;;3.97;;
43877;SDS011;29815;48.184;11.268;2023-06-04T07:43:26;5.80;;;4.32;;
43877;SDS011;29815;48.184;11.268;2023-06-04T07:45:56;8.50;;;4.00;;
43877;SDS011;29815;48.184;11.268;2023-06-04T07:48:26;10.02;;;3.88;;
43877;SDS011;29815;48.184;11.268;2023-06-04T07:50:58;7.90;;;3.80;;
43877;SDS011;29815;48.184;11.268;2023-06-04T07:53:28;6.00;;;3.88;;
43877;SDS011;29815;48.184;11.268;2023-06-04T07:55:59;6.32;;;3.90;;
43877;SDS011;29815;48.184;11.268;2023-06-04T07:58:29;6.20;;;3.83;;
43877;SDS011;29815;48.184;11.268;2023-06-04T08:00:59;5.63;;;3.63;;
43877;SDS011;29815;48.184;11.268;2023-06-04T08:03:29;7.47;;;3.83;;
43877;SDS011;29815;48.184;11.268;2023-06-04T08:05:59;6.35;;;4.07;;
43877;SDS011;29815;48.184;11.268;2023-06-04T08:08:31;6.35;;;4.43;;
43877;SDS011;29815;48.184;11.268;2023-06-04T08:11:02;6.22;;;3.60;;
43877;SDS011;29815;48.184;11.268;2023-06-04T08:13:32;7.53;;;3.53;;
43877;SDS011;29815;48.184;11.268;2023-06-04T08:16:02;5.85;;;4.07;;
43877;SDS011;29815;48.184;11.268;2023-06-04T08:29:14;5.10;;;3.60;;
43877;SDS011;29815;48.184;11.268;2023-06-04T08:31:44;6.05;;;3.70;;
43877;SDS011;29815;48.184;11.268;2023-06-04T08:34:25;7.18;;;3.72;;
43877;SDS011;29815;48.184;11.268;2023-06-04T08:36:55;3.95;;;3.55;;
43877;SDS011;29815;48.184;11.268;2023-06-04T08:39:24;4.63;;;3.75;;
43877;SDS011;29815;48.184;11.268;2023-06-04T08:41:54;4.80;;;3.78;;
43877;SDS011;29815;48.184;11.268;2023-06-04T08:44:33;6.95;;;4.03;;
43877;SDS011;29815;48.184;11.268;2023-06-04T08:47:03;8.07;;;5.20;;
43877;SDS011;29815;48.184;11.268;2023-06-04T08:49:35;4.75;;;3.95;;
43877;SDS011;29815;48.184;11.268;2023-06-04T08:52:05;8.63;;;5.32;;
43877;SDS011;29815;48.184;11.268;2023-06-04T08:54:35;7.15;;;5.93;;
43877;SDS011;29815;48.184;11.268;2023-06-04T08:57:05;7.90;;;4.07;;
43877;SDS011;29815;48.184;11.268;2023-06-04T08:59:37;9.85;;;4.05;;
43877;SDS011;29815;48.184;11.268;2023-06-04T09:02:06;7.43;;;3.78;;
43877;SDS011;29815;48.184;11.268;2023-06-04T09:04:38;11.13;;;5.03;;
43877;SDS011;29815;48.184;11.268;2023-06-04T09:07:08;4.47;;;3.47;;
43877;SDS011;29815;48.184;11.268;2023-06-04T09:09:42;4.25;;;3.70;;
43877;SDS011;29815;48.184;11.268;2023-06-04T09:12:36;5.53;;;3.47;;
43877;SDS011;29815;48.184;11.268;2023-06-04T09:15:11;6.05;;;3.30;;
43877;SDS011;29815;48.184;11.268;2023-06-04T09:17:41;4.30;;;3.08;;
43877;SDS011;29815;48.184;11.268;2023-06-04T09:20:18;6.32;;;3.63;;
43877;SDS011;29815;48.184;11.268;2023-06-04T09:22:49;6.95;;;3.30;;
43877;SDS011;29815;48.184;11.268;2023-06-04T09:25:20;4.18;;;3.33;;
43877;SDS011;29815;48.184;11.268;2023-06-04T09:27:53;6.60;;;3.60;;
43877;SDS011;29815;48.184;11.268;2023-06-04T09:30:25;5.63;;;3.60;;
43877;SDS011;29815;48.184;11.268;2023-06-04T09:33:05;5.60;;;3.05;;
43877;SDS011;29815;48.184;11.268;2023-06-04T09:35:36;4.85;;;3.50;;
43877;SDS011;29815;48.184;11.268;2023-06-04T09:38:06;7.95;;;3.35;;
43877;SDS011;29815;48.184;11.268;2023-06-04T09:40:36;4.45;;;3.00;;
43877;SDS011;29815;48.184;11.268;2023-06-04T09:43:06;5.07;;;3.42;;
43877;SDS011;29815;48.184;11.268;2023-06-04T09:45:39;12.95;;;3.72;;
43877;SDS011;29815;48.184;11.268;2023-06-04T09:48:09;5.88;;;3.38;;
43877;SDS011;29815;48.184;11.268;2023-06-04T09:50:49;6.97;;;3.35;;
43877;SDS011;29815;48.184;11.268;2023-06-04T09:53:19;6.05;;;3.80;;
43877;SDS011;29815;48.184;11.268;2023-06-04T09:55:56;6.50;;;3.88;;
43877;SDS011;29815;48.184;11.268;2023-06-04T09:58:27;7.15;;;3.08;;
43877;SDS011;29815;48.184;11.268;2023-06-04T10:01:00;6.90;;;3.20;;
43877;SDS011;29815;48.184;11.268;2023-06-04T10:03:34;4.82;;;3.40;;
43877;SDS011;29815;48.184;11.268;2023-06-04T10:06:05;6.90;;;3.67;;
43877;SDS011;29815;48.184;11.268;2023-06-04T10:08:35;3.78;;;3.17;;
43877;SDS011;29815;48.184;11.268;2023-06-04T10:11:09;5.07;;;3.53;;
43877;SDS011;29815;48.184;11.268;2023-06-04T10:13:44;5.72;;;4.40;;
43877;SDS011;29815;48.184;11.268;2023-06-04T10:16:24;5.22;;;4.00;;
43877;SDS011;29815;48.184;11.268;2023-06-04T10:19:01;4.18;;;3.55;;
43877;SDS011;29815;48.184;11.268;2023-06-04T10:21:35;4.82;;;4.22;;
43877;SDS011;29815;48.184;11.268;2023-06-04T10:24:22;4.45;;;3.83;;
43877;SDS011;29815;48.184;11.268;2023-06-04T10:26:54;4.03;;;3.67;;
43877;SDS011;29815;48.184;11.268;2023-06-04T10:29:26;6.45;;;3.80;;
43877;SDS011;29815;48.184;11.268;2023-06-04T10:31:59;6.10;;;3.80;;
43877;SDS011;29815;48.184;11.268;2023-06-04T10:34:29;5.30;;;3.45;;
43877;SDS011;29815;48.184;11.268;2023-06-04T10:37:00;6.50;;;4.22;;
43877;SDS011;29815;48.184;11.268;2023-06-04T10:39:30;5.70;;;4.40;;
43877;SDS011;29815;48.184;11.268;2023-06-04T10:42:01;7.65;;;4.45;;
43877;SDS011;29815;48.184;11.268;2023-06-04T10:44:45;4.28;;;3.75;;
43877;SDS011;29815;48.184;11.268;2023-06-04T10:47:21;5.80;;;4.35;;
43877;SDS011;29815;48.184;11.268;2023-06-04T10:49:53;6.40;;;3.92;;
43877;SDS011;29815;48.184;11.268;2023-06-04T10:52:23;4.32;;;3.70;;
43877;SDS011;29815;48.184;11.268;2023-06-04T10:55:02;5.35;;;3.78;;
43877;SDS011;29815;48.184;11.268;2023-06-04T10:57:34;5.70;;;4.40;;
43877;SDS011;29815;48.184;11.268;2023-06-04T11:00:04;4.72;;;3.63;;
43877;SDS011;29815;48.184;11.268;2023-06-04T11:02:42;5.03;;;3.45;;
43877;SDS011;29815;48.184;11.268;2023-06-04T11:05:22;9.00;;;4.07;;
43877;SDS011;29815;48.184;11.268;2023-06-04T11:08:02;6.78;;;3.63;;
43877;SDS011;29815;48.184;11.268;2023-06-04T11:10:34;6.93;;;4.07;;
43877;SDS011;29815;48.184;11.268;2023-06-04T11:13:05;4.50;;;3.50;;
43877;SDS011;29815;48.184;11.268;2023-06-04T11:15:39;6.15;;;3.90;;
43877;SDS011;29815;48.184;11.268;2023-06-04T11:18:14;5.50;;;3.50;;
43877;SDS011;29815;48.184;11.268;2023-06-04T11:20:46;7.68;;;3.55;;
43877;SDS011;29815;48.184;11.268;2023-06-04T11:23:19;5.53;;;3.50;;
43877;SDS011;29815;48.184;11.268;2023-06-04T11:25:51;5.53;;;3.50;;
43877;SDS011;29815;48.184;11.268;2023-06-04T11:28:22;4.13;;;3.72;;
43877;SDS011;29815;48.184;11.268;2023-06-04T11:30:58;6.78;;;4.03;;
43877;SDS011;29815;48.184;11.268;2023-06-04T11:33:40;7.88;;;4.25;;
43877;SDS011;29815;48.184;11.268;2023-06-04T11:36:21;6.63;;;4.07;;
43877;SDS011;29815;48.184;11.268;2023-06-04T11:38:56;5.40;;;3.35;;
43877;SDS011;29815;48.184;11.268;2023-06-04T16:35:58;5.35;;;4.03;;
43877;SDS011;29815;48.184;11.268;2023-06-04T16:38:28;5.73;;;4.40;;
43877;SDS011;29815;48.184;11.268;2023-06-04T16:40:57;4.53;;;4.07;;
43877;SDS011;29815;48.184;11.268;2023-06-04T16:43:27;11.55;;;4.30;;
43877;SDS011;29815;48.184;11.268;2023-06-04T16:45:57;5.57;;;4.13;;
43877;SDS011;29815;48.184;11.268;2023-06-04T16:48:26;6.00;;;4.05;;
43877;SDS011;29815;48.184;11.268;2023-06-04T16:50:56;6.53;;;4.80;;
43877;SDS011;29815;48.184;11.268;2023-06-04T16:53:27;4.80;;;4.18;;
43877;SDS011;29815;48.184;11.268;2023-06-04T16:55:57;5.47;;;4.03;;
43877;SDS011;29815;48.184;11.268;2023-06-04T16:58:27;6.30;;;3.90;;
43877;SDS011;29815;48.184;11.268;2023-06-04T17:00:57;5.03;;;4.03;;
43877;SDS011;29815;48.184;11.268;2023-06-04T17:03:26;5.22;;;3.90;;
43877;SDS011;29815;48.184;11.268;2023-06-04T17:05:56;5.22;;;4.30;;
43877;SDS011;29815;48.184;11.268;2023-06-04T17:08:27;9.65;;;4.43;;
43877;SDS011;29815;48.184;11.268;2023-06-04T17:10:56;6.25;;;4.38;;
43877;SDS011;29815;48.184;11.268;2023-06-04T17:13:26;7.15;;;4.40;;
43877;SDS011;29815;48.184;11.268;2023-06-04T17:15:56;4.97;;;4.47;;
43877;SDS011;29815;48.184;11.268;2023-06-04T17:18:25;9.55;;;4.18;;
43877;SDS011;29815;48.184;11.268;2023-06-04T17:20:55;4.38;;;3.75;;
43877;SDS011;29815;48.184;11.268;2023-06-04T17:23:26;5.30;;;4.15;;
43877;SDS011;29815;48.184;11.268;2023-06-04T17:29:00;7.38;;;4.28;;
43877;SDS011;29815;48.184;11.268;2023-06-04T17:31:30;6.45;;;4.43;;
43877;SDS011;29815;48.184;11.268;2023-06-04T17:34:00;6.25;;;5.63;;
43877;SDS011;29815;48.184;11.268;2023-06-04T17:36:29;7.85;;;7.03;;
43877;SDS011;29815;48.184;11.268;2023-06-04T17:39:00;7.07;;;5.07;;
43877;SDS011;29815;48.184;11.268;2023-06-04T17:41:30;6.40;;;4.82;;
43877;SDS011;29815;48.184;11.268;2023-06-04T17:43:59;5.95;;;5.03;;
43877;SDS011;29815;48.184;11.268;2023-06-04T17:46:29;5.43;;;3.97;;
43877;SDS011;29815;48.184;11.268;2023-06-04T17:48:59;7.70;;;4.70;;
43877;SDS011;29815;48.184;11.268;2023-06-04T17:51:30;7.17;;;4.80;;
43877;SDS011;29815;48.184;11.268;2023-06-04T17:54:01;5.47;;;4.47;;
43877;SDS011;29815;48.184;11.268;2023-06-04T17:56:31;7.80;;;4.90;;
43877;SDS011;29815;48.184;11.268;2023-06-04T17:59:02;6.22;;;4.32;;
43877;SDS011;29815;48.184;11.268;2023-06-04T18:01:31;7.20;;;5.05;;
43877;SDS011;29815;48.184;11.268;2023-06-04T18:04:04;6.30;;;4.55;;
43877;SDS011;29815;48.184;11.268;2023-06-04T18:06:33;5.18;;;4.10;;
43877;SDS011;29815;48.184;11.268;2023-06-04T18:09:04;6.47;;;5.15;;
43877;SDS011;29815;48.184;11.268;2023-06-04T18:11:34;7.07;;;5.22;;
43877;SDS011;29815;48.184;11.268;2023-06-04T18:14:04;9.20;;;6.53;;
43877;SDS011;29815;48.184;11.268;2023-06-04T18:16:33;6.93;;;5.38;;
43877;SDS011;29815;48.184;11.268;2023-06-04T18:19:03;9.65;;;6.10;;
43877;SDS011;29815;48.184;11.268;2023-06-04T18:21:33;8.02;;;5.32;;
43877;SDS011;29815;48.184;11.268;2023-06-04T18:24:02;7.85;;;5.40;;
43877;SDS011;29815;48.184;11.268;2023-06-04T18:26:34;8.00;;;5.10;;
43877;SDS011;29815;48.184;11.268;2023-06-04T18:29:04;9.50;;;5.75;;
43877;SDS011;29815;48.184;11.268;2023-06-04T18:31:33;6.47;;;5.32;;
43877;SDS011;29815;48.184;11.268;2023-06-04T18:34:03;7.05;;;6.35;;
43877;SDS011;29815;48.184;11.268;2023-06-04T18:36:34;9.20;;;5.75;;
43877;SDS011;29815;48.184;11.268;2023-06-04T18:39:05;6.78;;;5.25;;
43877;SDS011;29815;48.184;11.268;2023-06-04T18:41:35;6.88;;;4.97;;
43877;SDS011;29815;48.184;11.268;2023-06-04T18:44:05;12.32;;;6.18;;
43877;SDS011;29815;48.184;11.268;2023-06-04T18:46:35;7.22;;;4.80;;
43877;SDS011;29815;48.184;11.268;2023-06-04T18:49:04;8.57;;;5.18;;
43877;SDS011;29815;48.184;11.268;2023-06-04T18:51:34;8.70;;;5.03;;
43877;SDS011;29815;48.184;11.268;2023-06-04T18:54:05;8.35;;;4.95;;
43877;SDS011;29815;48.184;11.268;2023-06-04T18:56:35;8.02;;;5.53;;
43877;SDS011;29815;48.184;11.268;2023-06-04T18:59:05;9.60;;;5.38;;
43877;SDS011;29815;48.184;11.268;2023-06-04T19:01:34;8.32;;;5.82;;
43877;SDS011;29815;48.184;11.268;2023-06-04T19:04:04;7.82;;;5.35;;
43877;SDS011;29815;48.184;11.268;2023-06-04T19:06:35;9.40;;;5.10;;
43877;SDS011;29815;48.184;11.268;2023-06-04T19:09:06;6.72;;;5.10;;
43877;SDS011;29815;48.184;11.268;2023-06-04T19:11:36;8.95;;;4.95;;
43877;SDS011;29815;48.184;11.268;2023-06-04T19:14:06;8.25;;;4.85;;
43877;SDS011;29815;48.184;11.268;2023-06-04T19:16:38;6.57;;;4.60;;
43877;SDS011;29815;48.184;11.268;2023-06-04T19:19:09;7.35;;;4.43;;
43877;SDS011;29815;48.184;11.268;2023-06-04T19:21:38;6.55;;;5.63;;
43877;SDS011;29815;48.184;11.268;2023-06-04T19:24:09;7.38;;;5.10;;
43877;SDS011;29815;48.184;11.268;2023-06-04T19:26:40;8.00;;;4.70;;
43877;SDS011;29815;48.184;11.268;2023-06-04T19:29:09;6.18;;;5.28;;
43877;SDS011;29815;48.184;11.268;2023-06-04T19:31:39;6.57;;;5.07;;
43877;SDS011;29815;48.184;11.268;2023-06-04T19:34:09;6.65;;;4.70;;
43877;SDS011;29815;48.184;11.268;2023-06-04T19:36:39;6.97;;;4.72;;
43877;SDS011;29815;48.184;11.268;2023-06-04T19:39:10;7.78;;;4.20;;
43877;SDS011;29815;48.184;11.268;2023-06-04T19:41:39;6.80;;;4.82;;
43877;SDS011;29815;48.184;11.268;2023-06-04T19:44:10;7.05;;;5.47;;
43877;SDS011;29815;48.184;11.268;2023-06-04T19:46:39;7.97;;;4.97;;
43877;SDS011;29815;48.184;11.268;2023-06-04T19:49:09;7.82;;;4.97;;
43877;SDS011;29815;48.184;11.268;2023-06-04T19:51:39;6.07;;;4.97;;
43877;SDS011;29815;48.184;11.268;2023-06-04T19:54:10;8.52;;;5.10;;
43877;SDS011;29815;48.184;11.268;2023-06-04T19:56:40;6.72;;;4.68;;
43877;SDS011;29815;48.184;11.268;2023-06-04T19:59:09;6.97;;;5.05;;
43877;SDS011;29815;48.184;11.268;2023-06-04T20:01:39;7.13;;;5.20;;